createdAt,value
2022-10-18T00:01:09.276Z,54.15
2022-10-18T00:06:15.638Z,46.38
2022-10-18T00:08:43.587Z,50.85
2022-10-18T00:11:11.987Z,54.15
2022-10-18T00:13:39.926Z,48.30
2022-10-18T00:16:13.336Z,48.90
2022-10-18T00:18:42.142Z,54.75
2022-10-18T00:21:16.555Z,49.00
2022-10-18T00:23:46.879Z,54.60
2022-10-18T00:26:20.900Z,49.70
2022-10-18T00:28:55.208Z,46.38
2022-10-18T00:31:29.407Z,46.38
2022-10-18T00:34:00.770Z,42.75
2022-10-18T00:36:30.659Z,43.55
2022-10-18T00:38:59.118Z,51.35
2022-10-18T00:41:30.499Z,43.22
2022-10-18T00:44:00.523Z,49.58
2022-10-18T00:46:31.398Z,42.20
2022-10-18T00:49:03.030Z,45.97
2022-10-18T00:51:44.520Z,41.70
2022-10-18T00:54:15.394Z,42.88
2022-10-18T00:56:45.207Z,45.72
2022-10-18T00:59:16.147Z,46.78
2022-10-18T01:01:46.045Z,47.90
2022-10-18T01:04:15.991Z,50.40
2022-10-18T01:07:01.586Z,40.65
2022-10-18T01:09:42.187Z,45.47
2022-10-18T01:12:33.222Z,44.05
2022-10-18T01:15:06.238Z,45.70
2022-10-18T01:17:50.157Z,37.35
2022-10-18T01:20:29.938Z,43.00
2022-10-18T01:23:29.576Z,37.22
2022-10-18T01:26:14.087Z,42.03
2022-10-18T01:28:54.054Z,45.50
2022-10-18T01:31:46.158Z,40.65
2022-10-18T01:34:17.358Z,36.35
2022-10-18T01:36:51.246Z,38.05
2022-10-18T01:39:28.369Z,41.38
2022-10-18T01:41:59.998Z,43.63
2022-10-18T01:44:31.708Z,48.38
2022-10-18T01:47:00.836Z,43.35
2022-10-18T01:49:29.046Z,40.90
2022-10-18T01:51:57.087Z,43.28
2022-10-18T01:54:40.458Z,36.05
2022-10-18T01:57:31.238Z,42.87
2022-10-18T02:00:24.660Z,38.38
2022-10-18T02:03:07.217Z,44.28
2022-10-18T02:05:57.717Z,39.72
2022-10-18T02:08:39.428Z,41.13
2022-10-18T02:11:11.057Z,35.50
2022-10-18T02:14:09.787Z,36.33
2022-10-18T02:16:47.337Z,30.50
2022-10-18T02:19:18.998Z,34.30
2022-10-18T02:21:48.816Z,35.00
2022-10-18T02:24:18.877Z,43.67
2022-10-18T02:26:47.648Z,33.42
2022-10-18T02:29:16.219Z,38.28
2022-10-18T02:31:47.679Z,35.97
2022-10-18T02:34:48.706Z,42.72
2022-10-18T02:37:18.951Z,44.63
2022-10-18T02:39:49.566Z,32.55
2022-10-18T02:42:18.067Z,37.10
2022-10-18T02:44:45.918Z,33.25
2022-10-18T02:47:14.257Z,36.78
2022-10-18T02:49:42.190Z,34.13
2022-10-18T02:52:10.267Z,31.38
2022-10-18T02:54:38.416Z,33.10
2022-10-18T02:57:06.515Z,33.80
2022-10-18T02:59:34.322Z,34.08
2022-10-18T03:02:02.470Z,31.88
2022-10-18T03:04:30.583Z,32.03
2022-10-18T03:06:59.352Z,31.67
2022-10-18T03:09:27.421Z,31.23
2022-10-18T03:11:55.525Z,29.88
2022-10-18T03:14:23.608Z,28.80
2022-10-18T03:16:51.918Z,29.40
2022-10-18T03:19:19.928Z,31.13
2022-10-18T03:21:48.077Z,29.80
2022-10-18T03:24:16.145Z,29.50
2022-10-18T03:26:44.457Z,28.85
2022-10-18T03:29:12.516Z,27.85
2022-10-18T03:31:40.630Z,33.95
2022-10-18T03:34:08.598Z,35.85
2022-10-18T03:36:36.927Z,30.73
2022-10-18T03:39:05.006Z,34.00
2022-10-18T03:41:33.288Z,34.25
2022-10-18T03:44:01.248Z,46.08
2022-10-18T03:46:29.416Z,35.55
2022-10-18T03:48:57.407Z,34.05
2022-10-18T03:51:25.627Z,48.08
2022-10-18T03:53:53.566Z,35.60
2022-10-18T03:56:21.742Z,42.60
2022-10-18T03:58:49.686Z,46.05
2022-10-18T04:01:17.911Z,38.97
2022-10-18T04:03:45.888Z,37.70
2022-10-18T04:06:14.030Z,44.25
2022-10-18T04:08:41.889Z,37.78
2022-10-18T04:11:11.580Z,38.13
2022-10-18T04:13:39.487Z,42.58
2022-10-18T04:16:07.805Z,42.08
2022-10-18T04:18:35.708Z,43.90
2022-10-18T04:21:04.041Z,41.53
2022-10-18T04:23:35.056Z,47.45
2022-10-18T04:26:07.057Z,39.45
2022-10-18T04:28:35.853Z,41.03
2022-10-18T04:31:04.047Z,39.40
2022-10-18T04:33:32.238Z,45.17
2022-10-18T04:36:00.417Z,43.42
2022-10-18T04:38:28.667Z,44.65
2022-10-18T04:40:56.911Z,38.35
2022-10-18T04:43:24.837Z,43.08
2022-10-18T04:45:53.042Z,37.72
2022-10-18T04:48:21.580Z,43.28
2022-10-18T04:50:51.642Z,37.78
2022-10-18T04:53:19.700Z,43.30
2022-10-18T04:55:51.457Z,46.53
2022-10-18T04:58:20.064Z,52.53
2022-10-18T05:00:48.909Z,52.75
2022-10-18T05:03:17.638Z,44.47
2022-10-18T05:06:03.065Z,42.55
2022-10-18T05:08:33.877Z,52.60
2022-10-18T05:11:03.544Z,48.38
2022-10-18T05:14:22.944Z,45.80
2022-10-18T05:16:51.155Z,42.92
2022-10-18T05:19:19.002Z,47.35
2022-10-18T05:21:47.365Z,44.33
2022-10-18T05:24:15.327Z,50.60
2022-10-18T05:26:43.507Z,48.05
2022-10-18T05:29:11.479Z,41.15
2022-10-18T05:32:30.072Z,39.72
2022-10-18T05:35:27.241Z,46.05
2022-10-18T05:38:00.538Z,41.75
2022-10-18T05:40:33.489Z,41.67
2022-10-18T05:43:01.830Z,49.05
2022-10-18T05:45:29.885Z,40.40
2022-10-18T05:47:58.160Z,37.83
2022-10-18T05:50:26.329Z,41.65
2022-10-18T05:53:06.903Z,47.08
2022-10-18T05:55:46.406Z,35.88
2022-10-18T05:58:14.811Z,37.45
2022-10-18T06:00:42.934Z,48.15
2022-10-18T06:03:11.390Z,40.88
2022-10-18T06:08:13.556Z,44.75
2022-10-18T06:10:42.773Z,42.70
2022-10-18T06:13:14.219Z,38.33
2022-10-18T06:15:42.541Z,46.58
2022-10-18T06:18:11.026Z,36.65
2022-10-18T06:20:39.091Z,33.70
2022-10-18T06:23:07.421Z,41.40
2022-10-18T06:25:35.773Z,46.95
2022-10-18T06:28:07.941Z,35.90
2022-10-18T06:30:38.311Z,39.20
2022-10-18T06:33:06.581Z,48.70
2022-10-18T06:35:34.679Z,49.58
2022-10-18T06:38:03.070Z,39.53
2022-10-18T06:40:31.241Z,42.60
2022-10-18T06:43:19.663Z,44.47
2022-10-18T06:45:49.555Z,45.47
2022-10-18T06:51:00.461Z,54.90
2022-10-18T06:53:32.220Z,53.35
2022-10-18T06:56:10.333Z,55.95
2022-10-18T06:58:39.502Z,49.92
2022-10-18T07:01:19.942Z,45.85
2022-10-18T07:03:49.862Z,51.95
2022-10-18T07:06:19.941Z,55.75
2022-10-18T07:08:50.271Z,73.20
2022-10-18T07:11:25.325Z,47.05
2022-10-18T07:14:00.640Z,45.95
2022-10-18T07:16:29.171Z,44.30
2022-10-18T07:18:57.441Z,52.50
2022-10-18T07:21:28.066Z,47.35
2022-10-18T07:23:57.837Z,44.75
2022-10-18T07:26:31.777Z,43.85
2022-10-18T07:29:08.220Z,55.08
2022-10-18T07:31:38.759Z,45.13
2022-10-18T07:34:08.337Z,38.85
2022-10-18T07:36:36.415Z,46.75
2022-10-18T07:39:05.320Z,50.03
2022-10-18T07:41:34.327Z,54.53
2022-10-18T07:44:04.137Z,46.95
2022-10-18T07:46:32.356Z,47.22
2022-10-18T07:49:00.904Z,43.92
2022-10-18T07:51:31.335Z,54.25
2022-10-18T07:53:59.905Z,40.85
2022-10-18T07:56:28.018Z,43.63
2022-10-18T07:58:57.077Z,46.22
2022-10-18T08:01:26.566Z,40.90
2022-10-18T08:03:55.012Z,44.53
2022-10-18T08:06:23.796Z,47.83
2022-10-18T08:08:52.734Z,42.63
2022-10-18T08:11:23.860Z,41.25
2022-10-18T08:13:53.679Z,46.47
2022-10-18T08:16:24.566Z,52.05
2022-10-18T08:18:53.677Z,55.88
2022-10-18T08:21:22.091Z,50.00
2022-10-18T08:23:51.243Z,51.80
2022-10-18T08:26:21.407Z,56.60
2022-10-18T08:28:58.171Z,60.05
2022-10-18T08:31:31.994Z,56.72
2022-10-18T08:34:00.734Z,60.15
2022-10-18T08:36:28.737Z,58.75
2022-10-18T08:38:56.913Z,45.92
2022-10-18T08:41:43.625Z,56.28
2022-10-18T08:44:23.697Z,52.72
2022-10-18T08:46:56.670Z,52.42
2022-10-18T08:49:44.180Z,50.97
2022-10-18T08:52:30.096Z,58.85
2022-10-18T08:57:31.963Z,46.03
2022-10-18T09:00:06.581Z,49.33
2022-10-18T09:02:37.758Z,51.13
2022-10-18T09:05:06.059Z,44.55
2022-10-18T09:08:11.978Z,53.90
2022-10-18T09:11:05.922Z,65.78
2022-10-18T09:13:57.388Z,62.70
2022-10-18T09:16:55.230Z,54.60
2022-10-18T09:19:47.365Z,56.53
2022-10-18T09:22:19.329Z,49.35
2022-10-18T09:25:06.960Z,52.00
2022-10-18T09:27:51.539Z,44.53
2022-10-18T09:30:59.617Z,45.83
2022-10-18T09:33:46.919Z,53.17
2022-10-18T09:36:39.288Z,59.00
2022-10-18T09:39:14.589Z,50.97
2022-10-18T09:42:08.060Z,41.85
2022-10-18T09:44:44.758Z,54.47
2022-10-18T09:47:39.609Z,46.00
2022-10-18T09:50:29.669Z,49.08
2022-10-18T09:53:35.542Z,41.15
2022-10-18T09:56:30.428Z,40.80
2022-10-18T09:58:58.630Z,46.80
2022-10-18T10:01:30.721Z,41.45
2022-10-18T10:03:58.941Z,37.42
2022-10-18T10:06:30.591Z,36.03
2022-10-18T10:09:07.968Z,47.25
2022-10-18T10:11:45.953Z,46.45
2022-10-18T10:14:24.028Z,42.17
2022-10-18T10:16:56.522Z,41.83
2022-10-18T10:19:35.313Z,45.15
2022-10-18T10:22:11.079Z,40.75
2022-10-18T10:24:54.564Z,36.72
2022-10-18T10:27:34.044Z,49.22
2022-10-18T10:30:07.233Z,40.10
2022-10-18T10:32:48.823Z,33.58
2022-10-18T10:35:52.506Z,37.92
2022-10-18T10:38:27.498Z,29.95
2022-10-18T10:40:56.520Z,29.45
2022-10-18T10:43:39.214Z,45.85
2022-10-18T10:46:13.043Z,26.00
2022-10-18T10:51:29.081Z,25.10
2022-10-18T10:54:23.512Z,17.02
2022-10-18T10:57:04.371Z,18.65
2022-10-18T10:59:46.652Z,20.52
2022-10-18T11:02:15.332Z,16.95
2022-10-18T11:04:49.121Z,18.90
2022-10-18T11:07:41.293Z,19.95
2022-10-18T11:10:35.154Z,15.75
2022-10-18T11:13:18.920Z,17.30
2022-10-18T11:15:52.851Z,24.98
2022-10-18T11:18:34.100Z,15.32
2022-10-18T11:21:31.958Z,17.00
2022-10-18T11:24:03.400Z,17.25
2022-10-18T11:27:13.863Z,18.25
2022-10-18T11:30:23.974Z,18.25
2022-10-18T11:33:18.263Z,14.32
2022-10-18T11:36:19.168Z,16.63
2022-10-18T11:39:01.244Z,12.05
2022-10-18T11:41:40.851Z,18.20
2022-10-18T11:44:17.680Z,18.58
2022-10-18T11:46:51.038Z,19.98
2022-10-18T11:49:43.059Z,18.02
2022-10-18T11:52:47.563Z,20.35
2022-10-18T11:55:27.654Z,22.48
2022-10-18T11:58:36.041Z,24.02
2022-10-18T12:01:13.681Z,25.10
2022-10-18T12:04:14.341Z,26.67
2022-10-18T12:06:45.730Z,36.53
2022-10-18T12:09:38.313Z,33.42
2022-10-18T12:12:29.937Z,32.57
2022-10-18T12:15:25.910Z,32.60
2022-10-18T12:17:57.470Z,29.45
2022-10-18T12:21:02.754Z,31.90
2022-10-18T12:23:42.924Z,35.35
2022-10-18T12:26:11.736Z,28.58
2022-10-18T12:29:17.192Z,30.08
2022-10-18T12:32:12.654Z,29.77
2022-10-18T12:34:57.440Z,34.05
2022-10-18T12:37:56.141Z,40.28
2022-10-18T12:40:33.682Z,38.33
2022-10-18T12:43:17.122Z,47.53
2022-10-18T12:45:57.963Z,59.42
2022-10-18T12:48:30.380Z,64.22
2022-10-18T12:51:04.866Z,50.05
2022-10-18T12:53:34.471Z,48.30
2022-10-18T12:56:34.591Z,46.33
2022-10-18T12:59:17.479Z,54.60
2022-10-18T13:01:54.816Z,46.00
2022-10-18T13:04:29.131Z,55.22
2022-10-18T13:07:19.371Z,42.15
2022-10-18T13:10:15.340Z,47.03
2022-10-18T13:13:38.775Z,47.22
2022-10-18T13:16:23.309Z,55.38
2022-10-18T13:19:18.011Z,55.60
2022-10-18T13:21:55.321Z,50.10
2022-10-18T13:24:38.031Z,49.15
2022-10-18T13:27:36.950Z,52.03
2022-10-18T13:30:17.834Z,49.97
2022-10-18T13:32:54.879Z,49.60
2022-10-18T13:35:52.371Z,46.00
2022-10-18T13:38:43.650Z,49.65
2022-10-18T13:41:17.300Z,48.72
2022-10-18T13:43:56.932Z,47.15
2022-10-18T13:46:34.400Z,48.58
2022-10-18T13:49:17.021Z,67.97
2022-10-18T13:52:08.440Z,51.10
2022-10-18T13:54:55.048Z,47.88
2022-10-18T13:58:05.599Z,62.65
2022-10-18T14:00:49.026Z,52.15
2022-10-18T14:03:59.022Z,53.95
2022-10-18T14:06:27.511Z,50.40
2022-10-18T14:09:25.522Z,49.88
2022-10-18T14:12:40.886Z,54.55
2022-10-18T14:15:23.810Z,71.50
2022-10-18T14:17:54.864Z,57.15
2022-10-18T14:20:27.156Z,56.60
2022-10-18T14:23:23.821Z,61.75
2022-10-18T14:26:06.021Z,54.10
2022-10-18T14:28:48.359Z,54.20
2022-10-18T14:31:22.809Z,61.13
2022-10-18T14:33:57.952Z,55.30
2022-10-18T14:36:31.032Z,52.15
2022-10-18T14:39:05.270Z,58.43
2022-10-18T14:41:37.129Z,57.15
2022-10-18T14:44:18.990Z,54.95
2022-10-18T14:47:12.253Z,64.07
2022-10-18T14:49:45.510Z,55.65
2022-10-18T14:52:24.033Z,56.33
2022-10-18T14:54:59.520Z,56.45
2022-10-18T14:57:35.273Z,51.08
2022-10-18T15:00:18.270Z,51.92
2022-10-18T15:02:46.870Z,55.80
2022-10-18T15:05:22.337Z,46.15
2022-10-18T15:07:52.372Z,42.15
2022-10-18T15:10:30.340Z,51.20
2022-10-18T15:13:11.178Z,46.72
2022-10-18T15:15:40.409Z,52.85
2022-10-18T15:18:19.612Z,51.47
2022-10-18T15:21:20.412Z,54.65
2022-10-18T15:23:50.379Z,43.40
2022-10-18T15:26:29.819Z,50.50
2022-10-18T15:29:01.681Z,47.97
2022-10-18T15:31:36.568Z,44.72
2022-10-18T15:34:14.650Z,43.92
2022-10-18T15:39:22.183Z,48.00
2022-10-18T15:41:55.984Z,48.67
2022-10-18T15:44:35.244Z,46.75
2022-10-18T15:47:12.771Z,55.85
2022-10-18T15:49:47.191Z,48.03
2022-10-18T15:52:38.306Z,40.53
2022-10-18T15:55:31.983Z,47.38
2022-10-18T15:58:11.522Z,53.87
2022-10-18T16:00:39.938Z,63.35
2022-10-18T16:03:11.488Z,59.42
2022-10-18T16:05:40.480Z,49.75
2022-10-18T16:08:28.977Z,57.85
2022-10-18T16:10:59.107Z,58.00
2022-10-18T16:13:27.762Z,67.32
2022-10-18T16:15:56.213Z,66.70
2022-10-18T16:18:25.302Z,69.80
2022-10-18T16:20:53.679Z,58.20
2022-10-18T16:23:26.991Z,68.43
2022-10-18T16:25:55.598Z,58.78
2022-10-18T16:28:26.153Z,61.78
2022-10-18T16:31:00.405Z,77.63
2022-10-18T16:33:28.812Z,74.03
2022-10-18T16:35:57.312Z,63.88
2022-10-18T16:38:35.339Z,70.22
2022-10-18T16:41:05.715Z,69.85
2022-10-18T16:43:35.349Z,65.30
2022-10-18T16:46:04.722Z,75.60
2022-10-18T16:48:33.337Z,70.28
2022-10-18T16:51:02.112Z,83.38
2022-10-18T16:53:30.137Z,76.80
2022-10-18T16:56:00.847Z,67.68
2022-10-18T16:58:30.143Z,67.90
2022-10-18T17:01:01.019Z,76.63
2022-10-18T17:03:31.072Z,75.88
2022-10-18T17:05:59.307Z,75.88
2022-10-18T17:08:28.433Z,77.65
2022-10-18T17:10:59.271Z,90.68
2022-10-18T17:13:27.297Z,87.70
2022-10-18T17:15:56.457Z,86.20
2022-10-18T17:18:30.725Z,83.13
2022-10-18T17:21:03.214Z,87.78
2022-10-18T17:23:31.543Z,74.72
2022-10-18T17:26:05.625Z,81.43
2022-10-18T17:28:35.445Z,68.43
2022-10-18T17:31:06.952Z,78.47
2022-10-18T17:33:35.363Z,76.38
2022-10-18T17:36:04.288Z,72.47
2022-10-18T17:38:32.323Z,72.95
2022-10-18T17:41:06.739Z,76.55
2022-10-18T17:43:34.816Z,70.15
2022-10-18T17:46:03.274Z,73.72
2022-10-18T17:48:31.557Z,71.63
2022-10-18T17:50:59.864Z,69.93
2022-10-18T17:53:29.387Z,78.53
2022-10-18T17:56:02.390Z,71.80
2022-10-18T18:01:09.882Z,74.72
2022-10-18T18:03:38.079Z,77.93
2022-10-18T18:06:35.242Z,73.15
2022-10-18T18:09:13.229Z,72.25
2022-10-18T18:11:48.455Z,72.35
2022-10-18T18:14:17.876Z,73.22
2022-10-18T18:16:47.186Z,77.03
2022-10-18T18:19:16.243Z,80.32
2022-10-18T18:21:44.608Z,77.15
2022-10-18T18:24:14.229Z,78.38
2022-10-18T18:26:43.620Z,70.68
2022-10-18T18:29:12.997Z,76.50
2022-10-18T18:31:43.978Z,75.05
2022-10-18T18:34:12.555Z,65.45
2022-10-18T18:36:41.510Z,70.18
2022-10-18T18:39:25.839Z,83.82
2022-10-18T18:41:54.140Z,68.72
2022-10-18T18:44:22.867Z,71.40
2022-10-18T18:46:51.173Z,81.68
2022-10-18T18:49:19.338Z,71.35
2022-10-18T18:51:47.649Z,92.30
2022-10-18T18:54:16.273Z,84.65
2022-10-18T18:56:44.965Z,85.38
2022-10-18T18:59:14.572Z,85.95
2022-10-18T19:01:43.780Z,92.95
2022-10-18T19:04:12.229Z,96.97
2022-10-18T19:06:43.201Z,92.78
2022-10-18T19:09:22.073Z,90.97
2022-10-18T19:11:53.596Z,98.00
2022-10-18T19:14:25.308Z,101.38
2022-10-18T19:16:57.805Z,82.27
2022-10-18T19:19:28.723Z,89.22
2022-10-18T19:22:01.004Z,91.25
2022-10-18T19:24:31.178Z,81.70
2022-10-18T19:27:02.320Z,90.25
2022-10-18T19:29:33.338Z,93.03
2022-10-18T19:32:04.667Z,95.60
2022-10-18T19:34:37.947Z,83.50
2022-10-18T19:37:07.999Z,97.57
2022-10-18T19:39:37.617Z,92.47
2022-10-18T19:42:10.818Z,80.78
2022-10-18T19:44:43.289Z,86.45
2022-10-18T19:47:15.207Z,83.70
2022-10-18T19:49:44.417Z,88.10
2022-10-18T19:52:14.300Z,80.03
2022-10-18T19:54:46.158Z,84.13
2022-10-18T19:57:16.132Z,89.78
2022-10-18T19:59:44.605Z,83.00
2022-10-18T20:02:16.140Z,78.75
2022-10-18T20:04:44.714Z,91.70
2022-10-18T20:07:13.588Z,86.35
2022-10-18T20:09:42.470Z,88.28
2022-10-18T20:12:10.679Z,84.25
2022-10-18T20:14:39.139Z,80.03
2022-10-18T20:17:12.715Z,80.82
2022-10-18T20:19:41.670Z,83.50
2022-10-18T20:22:10.690Z,82.25
2022-10-18T20:24:40.454Z,94.47
2022-10-18T20:27:09.629Z,90.10
2022-10-18T20:29:38.153Z,80.43
2022-10-18T20:32:06.828Z,77.32
2022-10-18T20:34:35.528Z,88.30
2022-10-18T20:37:04.154Z,78.45
2022-10-18T20:39:34.159Z,83.95
2022-10-18T20:42:03.040Z,89.78
2022-10-18T20:44:34.080Z,83.32
2022-10-18T20:47:02.342Z,84.75
2022-10-18T20:49:30.420Z,76.47
2022-10-18T20:51:58.523Z,83.63
2022-10-18T20:54:27.383Z,84.80
2022-10-18T20:56:55.629Z,90.07
2022-10-18T20:59:23.644Z,91.97
2022-10-18T21:01:52.229Z,81.60
2022-10-18T21:04:20.556Z,79.85
2022-10-18T21:06:48.956Z,76.88
2022-10-18T21:09:19.590Z,87.35
2022-10-18T21:11:50.436Z,76.30
2022-10-18T21:14:20.495Z,83.13
2022-10-18T21:16:50.312Z,81.10
2022-10-18T21:19:25.001Z,82.20
2022-10-18T21:21:57.532Z,79.53
2022-10-18T21:24:26.916Z,71.85
2022-10-18T21:26:56.519Z,73.25
2022-10-18T21:29:25.163Z,79.07
2022-10-18T21:31:56.153Z,76.80
2022-10-18T21:34:24.205Z,84.25
2022-10-18T21:36:52.653Z,85.68
2022-10-18T21:41:57.755Z,78.18
2022-10-18T21:44:25.925Z,78.93
2022-10-18T21:46:55.364Z,68.10
2022-10-18T21:49:25.278Z,75.82
2022-10-18T21:51:53.636Z,79.88
2022-10-18T21:54:21.843Z,70.78
2022-10-18T21:56:51.604Z,80.80
2022-10-18T21:59:19.665Z,72.13
2022-10-18T22:01:47.964Z,72.80
2022-10-18T22:04:25.277Z,75.82
2022-10-18T22:06:53.766Z,84.82
2022-10-18T22:09:22.944Z,74.07
2022-10-18T22:11:53.517Z,64.15
2022-10-18T22:14:22.197Z,73.53
2022-10-18T22:16:51.274Z,70.60
2022-10-18T22:19:20.064Z,70.45
2022-10-18T22:21:48.610Z,69.40
2022-10-18T22:24:17.377Z,82.72
2022-10-18T22:26:46.636Z,69.78
2022-10-18T22:29:17.747Z,71.57
2022-10-18T22:31:51.997Z,72.95
2022-10-18T22:34:27.931Z,64.28
2022-10-18T22:36:56.955Z,72.05
2022-10-18T22:39:25.316Z,74.75
2022-10-18T22:41:56.595Z,75.60
2022-10-18T22:44:25.330Z,83.70
2022-10-18T22:46:53.834Z,74.07
2022-10-18T22:49:21.849Z,73.07
2022-10-18T22:51:50.191Z,74.15
2022-10-18T22:54:18.588Z,87.50
2022-10-18T22:56:46.865Z,68.30
2022-10-18T22:59:15.022Z,76.22
2022-10-18T23:01:43.317Z,73.20
2022-10-18T23:04:11.425Z,73.78
2022-10-18T23:06:40.414Z,80.03
2022-10-18T23:09:10.835Z,76.78
2022-10-18T23:11:39.305Z,69.15
2022-10-18T23:14:07.860Z,73.28
2022-10-18T23:16:36.154Z,72.68
2022-10-18T23:19:04.887Z,77.15
2022-10-18T23:21:34.467Z,70.85
2022-10-18T23:24:02.433Z,72.10
2022-10-18T23:26:30.880Z,72.00
2022-10-18T23:28:59.097Z,70.70
2022-10-18T23:31:33.163Z,68.22
2022-10-18T23:34:04.492Z,71.57
2022-10-18T23:36:34.436Z,74.35
2022-10-18T23:39:03.758Z,69.30
2022-10-18T23:41:32.792Z,72.93
2022-10-18T23:44:00.725Z,78.07
2022-10-18T23:46:29.097Z,73.30
2022-10-18T23:48:57.194Z,69.22
2022-10-18T23:51:25.430Z,74.80
2022-10-18T23:53:53.515Z,64.45
2022-10-18T23:56:21.754Z,73.38
2022-10-18T23:58:49.743Z,69.13
